Terminal Aerodrome Forecast
Issued by NWS Blacksburg, VA

Home | Current Version | Previous Version | Text Only | Print | Product List | Glossary On
Versions: 1 2 3 4 5 6 7 8 9 10 11 12 13 14 15 16 17 18 19 20 21 22 23 24 25 26 27 28 29 30 31 32 33
000
FTUS41 KRNK 141130
TAFBLF
TAF
KBLF 141130Z 1412/1512 14003KT P6SM BKN150
     FM142200 15008KT 5SM -SN OVC015
     FM150100 16011G18KT 1 1/2SM -SN BR OVC008
     FM150700 16008G15KT 1SM -SN BR OVC004=

USA.gov is the U.S. government's official web portal to all federal, state and local government web resources and services.